Portada
METAR-TAF:

METAR-TAF

Aeroports :

Praga, República Txeca

latitud: 50-12-59N, longitud: 014-23-42E, altitud: 280 m

Observació

L'informe es va fer fa 9 hores i 46 minuts, a les 14:00 UTC
Vent 22 kt del Oest amb ràfegues de 32 kt
Temperatura 6°C
Humitat 49%
Pressió 995 hPa
Visibilitat 10 km o més
Núvols disperses a una alçada de 4100 ft
Cel ennuvolat a una alçada de 7200 ft

METAR: LKVO 261400Z 27022G32KT 9999 SCT041 BKN072 06/M04 Q0995

Hora: 00:46 (23:46 UTC)


TAF: manca

Observacions i pronòstics meteorològics de més de 4000 aeroports (METAR i TAF).

Les estacions disponibles són els punts grocs i vermells al mapa.

Posi el ratolí al punt desitjat per veure el nom de l'estació.

Feu clic per veure les observacions i els pronòstics meteorològics.

Per canviar el mapa: feu clic els botons verds amb una creu de color negre per apropar; al botó verd amb un guió per allunyar la imatge; o en les fletxes verdes per a mapes adjacents.


METAR-TAF: